Time;durP1;ratioP1;P1;durP2;ratioP2;P2;SDS_P1;SDS_P2;PMS_P1;PMS_P2;Temp;Humidity;BMP_temperature;BMP_pressure;BME280_temperature;BME280_humidity;BME280_pressure;Samples;Min_cycle;Max_cycle;Signal;HPM_P1;HPM_P2
2023/04/13 17:49:59;;;;;;;9.40;3.08;;;;;;;;;;6163803;22;20426;-89
2023/04/13 17:53:05;;;;;;;18.13;7.80;;;;;;;;;;6181900;23;20168;-88
2023/04/13 17:56:15;;;;;;;7.78;2.60;;;;;;;;;;6182515;23;20168;-88
2023/04/13 17:59:20;;;;;;;8.95;3.05;;;;;;;;;;6184147;23;20175;-89
2023/04/13 18:02:25;;;;;;;6.75;2.90;;;;;;;;;;6183243;23;20172;-88
2023/04/13 18:05:32;;;;;;;6.68;2.35;;;;;;;;;;6184039;23;20167;-89
2023/04/13 18:08:37;;;;;;;5.13;2.00;;;;;;;;;;6182359;23;20168;-90
2023/04/13 18:11:42;;;;;;;3.78;1.75;;;;;;;;;;6181734;23;20176;-88
2023/04/13 18:14:47;;;;;;;6.65;1.60;;;;;;;;;;6183085;23;20169;-89
2023/04/13 18:17:53;;;;;;;5.47;2.22;;;;;;;;;;6183853;23;20220;-90
2023/04/13 18:21:00;;;;;;;5.85;2.45;;;;;;;;;;6183368;23;20171;-89
2023/04/13 18:24:05;;;;;;;7.28;2.35;;;;;;;;;;6186357;23;20180;-89
2023/04/13 18:27:11;;;;;;;6.43;2.15;;;;;;;;;;6188823;23;20163;-89
2023/04/13 18:35:14;;;;;;;0.40;0.40;;;;;;;;;;6205030;23;20235;-88
2023/04/13 18:38:21;;;;;;;0.63;0.50;;;;;;;;;;6186435;23;20261;-90
2023/04/13 18:41:26;;;;;;;0.40;0.40;;;;;;;;;;6185500;23;20183;-89
2023/04/13 18:44:31;;;;;;;4.10;1.70;;;;;;;;;;6184417;23;20172;-90
2023/04/13 18:51:29;;;;;;;0.40;0.40;;;;;;;;;;6185496;23;20236;-90
2023/04/13 18:54:37;;;;;;;0.80;0.80;;;;;;;;;;6187484;23;20175;-92
2023/04/13 18:57:42;;;;;;;0.70;0.70;;;;;;;;;;6184435;23;20147;-91
2023/04/13 19:00:48;;;;;;;0.30;0.30;;;;;;;;;;6186748;23;20172;-89
2023/04/13 19:03:56;;;;;;;0.40;0.40;;;;;;;;;;6171792;23;20176;-89
2023/04/13 19:07:03;;;;;;;0.30;0.30;;;;;;;;;;6188835;23;20171;-91
2023/04/13 19:10:12;;;;;;;0.30;0.30;;;;;;;;;;6189135;23;20195;-90
2023/04/13 19:13:24;;;;;;;0.50;0.50;;;;;;;;;;6188528;23;20221;-90
2023/04/13 19:16:44;;;;;;;0.50;0.50;;;;;;;;;;6190051;23;20171;-90
2023/04/13 19:19:50;;;;;;;0.40;0.40;;;;;;;;;;6186085;23;20175;-89
2023/04/13 19:23:00;;;;;;;0.65;0.60;;;;;;;;;;6188243;23;20209;-89
2023/04/13 19:26:11;;;;;;;0.50;0.50;;;;;;;;;;6191768;23;20241;-90
2023/04/13 19:29:19;;;;;;;0.93;0.82;;;;;;;;;;6169568;23;20619;-90
2023/04/13 19:32:25;;;;;;;0.30;0.30;;;;;;;;;;6185620;23;20155;-90
2023/04/13 19:35:40;;;;;;;0.57;0.57;;;;;;;;;;6185213;23;20171;-90
2023/04/13 19:38:45;;;;;;;0.98;0.70;;;;;;;;;;6187400;23;20151;-93
2023/04/13 19:41:54;;;;;;;0.50;0.50;;;;;;;;;;6186585;23;20179;-90
2023/04/13 19:44:59;;;;;;;3.90;0.95;;;;;;;;;;6185271;23;20161;-91
2023/04/13 19:48:19;;;;;;;0.95;0.60;;;;;;;;;;6190549;23;20180;-89
2023/04/13 19:51:26;;;;;;;2.53;0.95;;;;;;;;;;6186156;23;20303;-89
2023/04/13 19:54:32;;;;;;;5.38;0.90;;;;;;;;;;6187024;23;20225;-89
2023/04/13 19:57:41;;;;;;;0.30;0.30;;;;;;;;;;6185245;23;20252;-91
2023/04/13 20:00:47;;;;;;;0.45;0.45;;;;;;;;;;6186173;23;20167;-90
2023/04/13 20:03:53;;;;;;;0.75;0.75;;;;;;;;;;6185503;23;20195;-92
2023/04/13 20:06:58;;;;;;;0.75;0.75;;;;;;;;;;6184190;23;20172;-90
2023/04/13 20:10:04;;;;;;;1.02;0.77;;;;;;;;;;6184701;23;20211;-92
2023/04/13 20:13:14;;;;;;;0.73;0.73;;;;;;;;;;6182181;23;20164;-91
2023/04/13 20:16:19;;;;;;;0.30;0.30;;;;;;;;;;6183080;23;20156;-90
2023/04/13 20:19:24;;;;;;;1.33;0.88;;;;;;;;;;6183483;23;20172;-91
2023/04/13 20:22:29;;;;;;;0.77;0.77;;;;;;;;;;6183658;23;20229;-90
2023/04/13 20:25:35;;;;;;;0.63;0.63;;;;;;;;;;6183189;23;20164;-92
2023/04/13 20:28:41;;;;;;;0.40;0.40;;;;;;;;;;6182736;23;20171;-88
2023/04/13 20:31:47;;;;;;;0.75;0.60;;;;;;;;;;6181629;23;20190;-89
2023/04/13 20:34:54;;;;;;;5.55;5.00;;;;;;;;;;6182379;23;20192;-91
2023/04/13 20:37:59;;;;;;;3.20;0.95;;;;;;;;;;6181949;23;20168;-88
2023/04/13 20:41:05;;;;;;;0.93;0.80;;;;;;;;;;6181952;23;20615;-91
2023/04/13 20:44:11;;;;;;;0.95;0.85;;;;;;;;;;6182374;23;20151;-91
2023/04/13 20:47:24;;;;;;;0.77;0.77;;;;;;;;;;6178944;23;20164;-90
2023/04/13 20:50:29;;;;;;;0.80;0.68;;;;;;;;;;6180776;23;20218;-90
2023/04/13 20:53:35;;;;;;;0.50;0.50;;;;;;;;;;6182765;23;20171;-91
2023/04/13 20:56:40;;;;;;;0.70;0.70;;;;;;;;;;6182066;23;20183;-91
2023/04/13 20:59:47;;;;;;;0.75;0.65;;;;;;;;;;6180106;23;20167;-89
2023/04/13 21:02:53;;;;;;;0.57;0.57;;;;;;;;;;6178329;23;20167;-89
2023/04/13 21:05:58;;;;;;;1.65;1.05;;;;;;;;;;6178862;23;20159;-90
2023/04/13 21:09:04;;;;;;;1.15;0.80;;;;;;;;;;6184360;23;20164;-89
2023/04/13 21:12:09;;;;;;;0.68;0.68;;;;;;;;;;6182949;23;20651;-91
2023/04/13 21:15:18;;;;;;;2.58;1.00;;;;;;;;;;6181100;23;20171;-89
2023/04/13 21:18:24;;;;;;;0.90;0.75;;;;;;;;;;6181502;23;20164;-89
2023/04/13 21:21:32;;;;;;;1.20;0.80;;;;;;;;;;6183181;23;20163;-88
2023/04/13 21:24:37;;;;;;;1.25;1.05;;;;;;;;;;6183006;23;20171;-87
2023/04/13 21:27:43;;;;;;;7.73;1.70;;;;;;;;;;6183583;23;20235;-90
2023/04/13 21:30:48;;;;;;;1.83;0.37;;;;;;;;;;6182180;23;20266;-90
2023/04/13 21:33:54;;;;;;;0.77;0.73;;;;;;;;;;6182895;23;20187;-90
2023/04/13 21:37:02;;;;;;;0.70;0.70;;;;;;;;;;6182720;23;20150;-90
2023/04/13 21:40:07;;;;;;;0.70;0.70;;;;;;;;;;6183147;23;20164;-90
2023/04/13 21:43:12;;;;;;;0.95;0.95;;;;;;;;;;6183379;23;20168;-90
2023/04/13 21:46:21;;;;;;;0.60;0.60;;;;;;;;;;6182241;23;20590;-91
2023/04/13 21:49:28;;;;;;;3.00;1.08;;;;;;;;;;6183114;23;20171;-91
2023/04/13 21:52:33;;;;;;;6.03;1.70;;;;;;;;;;6150691;23;20168;-90
2023/04/13 21:55:38;;;;;;;0.50;0.50;;;;;;;;;;6151848;23;20261;-88
2023/04/13 21:58:44;;;;;;;0.80;0.80;;;;;;;;;;6154872;23;20168;-91
2023/04/13 22:02:15;;;;;;;0.70;0.70;;;;;;;;;;6155196;23;20717;-90
2023/04/13 22:05:22;;;;;;;0.85;0.85;;;;;;;;;;6152470;23;20252;-91
2023/04/13 22:08:27;;;;;;;0.40;0.40;;;;;;;;;;6152803;23;20156;-91
2023/04/13 22:11:32;;;;;;;1.00;1.00;;;;;;;;;;6154188;23;20180;-92
2023/04/13 22:14:39;;;;;;;0.82;0.82;;;;;;;;;;6154281;23;20184;-89
2023/04/13 22:17:44;;;;;;;0.77;0.77;;;;;;;;;;6154003;23;20164;-92
2023/04/13 22:20:51;;;;;;;0.55;0.55;;;;;;;;;;6151850;23;20237;-92
2023/04/13 22:23:56;;;;;;;0.77;0.77;;;;;;;;;;6153090;23;20172;-90
2023/04/13 22:27:02;;;;;;;0.98;0.82;;;;;;;;;;6153802;23;20216;-92
2023/04/13 22:30:08;;;;;;;0.40;0.40;;;;;;;;;;6153469;23;20168;-91
2023/04/13 22:33:12;;;;;;;0.60;0.60;;;;;;;;;;6152736;23;20222;-92
2023/04/13 22:36:20;;;;;;;2.33;1.33;;;;;;;;;;6151744;23;20242;-91
2023/04/13 22:39:25;;;;;;;0.60;0.60;;;;;;;;;;6149234;23;20152;-92
2023/04/13 22:42:32;;;;;;;0.73;0.73;;;;;;;;;;6152403;23;20168;-92
2023/04/13 22:45:37;;;;;;;0.57;0.57;;;;;;;;;;6151504;23;20176;-91
2023/04/13 22:52:20;;;;;;;3.33;1.47;;;;;;;;;;6180140;23;20230;-91
2023/04/13 22:55:25;;;;;;;1.80;1.03;;;;;;;;;;6181360;23;20155;-90
2023/04/13 22:58:30;;;;;;;0.60;0.60;;;;;;;;;;6182461;23;20204;-92
2023/04/13 23:01:35;;;;;;;0.47;0.47;;;;;;;;;;6181073;23;20184;-92
2023/04/13 23:04:40;;;;;;;1.33;0.68;;;;;;;;;;6180735;23;20179;-92
2023/04/13 23:07:47;;;;;;;1.08;0.98;;;;;;;;;;6179753;23;20167;-94
2023/04/13 23:10:52;;;;;;;0.50;0.50;;;;;;;;;;6179993;23;20269;-91
2023/04/13 23:13:59;;;;;;;1.38;1.02;;;;;;;;;;6180723;23;20172;-91
2023/04/13 23:20:41;;;;;;;0.60;0.60;;;;;;;;;;6179929;23;20187;-92
2023/04/13 23:27:37;;;;;;;0.50;0.50;;;;;;;;;;6180956;23;20212;-91
2023/04/13 23:30:42;;;;;;;0.77;0.60;;;;;;;;;;6180610;23;20168;-91
2023/04/13 23:33:47;;;;;;;0.60;0.60;;;;;;;;;;6179588;23;20623;-90
2023/04/13 23:36:52;;;;;;;0.63;0.63;;;;;;;;;;6180799;23;20167;-92
2023/04/13 23:39:57;;;;;;;0.30;0.30;;;;;;;;;;6180979;23;20173;-92
2023/04/13 23:43:03;;;;;;;0.80;0.80;;;;;;;;;;6179439;23;20223;-92
2023/04/13 23:46:08;;;;;;;0.30;0.30;;;;;;;;;;6178338;23;20499;-90
2023/04/13 23:49:13;;;;;;;1.27;0.52;;;;;;;;;;6178899;23;20156;-92
2023/04/13 23:52:18;;;;;;;0.82;0.82;;;;;;;;;;6178283;23;20215;-91
2023/04/13 23:55:23;;;;;;;0.40;0.40;;;;;;;;;;6179709;23;20215;-92
2023/04/13 23:58:30;;;;;;;0.63;0.63;;;;;;;;;;6180147;23;20254;-92
